sensor_id;sensor_type;location;lat;lon;timestamp;pressure;altitude;pressure_sealevel;temperature;humidity
28312;BME280;15572;48.810;9.148;2023-04-20T00:03:19;98136.28;;;2.39;100.00
28312;BME280;15572;48.810;9.148;2023-04-20T00:08:17;98120.69;;;2.34;100.00
28312;BME280;15572;48.810;9.148;2023-04-20T00:13:13;98118.88;;;2.25;100.00
28312;BME280;15572;48.810;9.148;2023-04-20T00:18:10;98115.13;;;2.08;100.00
28312;BME280;15572;48.810;9.148;2023-04-20T00:23:06;98105.19;;;2.01;100.00
28312;BME280;15572;48.810;9.148;2023-04-20T00:28:04;98102.53;;;2.01;100.00
28312;BME280;15572;48.810;9.148;2023-04-20T00:33:01;98099.09;;;2.18;100.00
28312;BME280;15572;48.810;9.148;2023-04-20T00:37:57;98091.53;;;2.04;100.00
28312;BME280;15572;48.810;9.148;2023-04-20T00:42:54;98082.56;;;1.95;100.00
28312;BME280;15572;48.810;9.148;2023-04-20T00:47:51;98084.56;;;1.84;100.00
28312;BME280;15572;48.810;9.148;2023-04-20T00:52:48;98072.63;;;1.88;100.00
28312;BME280;15572;48.810;9.148;2023-04-20T00:57:45;98071.91;;;1.95;100.00
28312;BME280;15572;48.810;9.148;2023-04-20T01:02:41;98061.69;;;1.81;100.00
28312;BME280;15572;48.810;9.148;2023-04-20T01:07:39;98055.53;;;1.61;100.00
28312;BME280;15572;48.810;9.148;2023-04-20T01:12:36;98048.25;;;1.63;100.00
28312;BME280;15572;48.810;9.148;2023-04-20T01:17:32;98034.44;;;1.78;100.00
28312;BME280;15572;48.810;9.148;2023-04-20T01:22:32;98026.41;;;1.78;100.00
28312;BME280;15572;48.810;9.148;2023-04-20T01:27:28;98016.03;;;1.75;100.00
28312;BME280;15572;48.810;9.148;2023-04-20T01:32:25;98013.97;;;1.68;100.00
28312;BME280;15572;48.810;9.148;2023-04-20T01:37:21;98005.66;;;1.72;100.00
28312;BME280;15572;48.810;9.148;2023-04-20T01:42:20;97997.53;;;1.63;100.00
28312;BME280;15572;48.810;9.148;2023-04-20T01:47:17;97992.38;;;1.52;100.00
28312;BME280;15572;48.810;9.148;2023-04-20T01:52:13;97985.47;;;1.50;100.00
28312;BME280;15572;48.810;9.148;2023-04-20T01:57:10;97981.28;;;1.47;100.00
28312;BME280;15572;48.810;9.148;2023-04-20T02:02:08;97971.34;;;1.40;100.00
28312;BME280;15572;48.810;9.148;2023-04-20T02:07:04;97965.66;;;1.06;100.00
28312;BME280;15572;48.810;9.148;2023-04-20T02:12:00;97966.66;;;0.95;100.00
28312;BME280;15572;48.810;9.148;2023-04-20T02:16:57;97965.94;;;1.03;100.00
28312;BME280;15572;48.810;9.148;2023-04-20T02:21:56;97964.25;;;1.02;100.00
28312;BME280;15572;48.810;9.148;2023-04-20T02:26:52;97961.91;;;0.79;100.00
28312;BME280;15572;48.810;9.148;2023-04-20T02:31:49;97945.22;;;0.68;100.00
28312;BME280;15572;48.810;9.148;2023-04-20T02:36:45;97941.97;;;0.64;100.00
28312;BME280;15572;48.810;9.148;2023-04-20T02:41:44;97937.22;;;0.77;100.00
28312;BME280;15572;48.810;9.148;2023-04-20T02:46:41;97946.59;;;0.81;100.00
28312;BME280;15572;48.810;9.148;2023-04-20T02:51:37;97937.19;;;0.87;100.00
28312;BME280;15572;48.810;9.148;2023-04-20T02:56:34;97927.38;;;0.88;100.00
28312;BME280;15572;48.810;9.148;2023-04-20T03:01:31;97932.03;;;0.66;100.00
28312;BME280;15572;48.810;9.148;2023-04-20T03:06:28;97926.28;;;0.71;100.00
28312;BME280;15572;48.810;9.148;2023-04-20T03:11:24;97927.69;;;0.84;100.00
28312;BME280;15572;48.810;9.148;2023-04-20T03:16:21;97921.34;;;0.85;100.00
28312;BME280;15572;48.810;9.148;2023-04-20T03:21:18;97918.53;;;0.87;100.00
28312;BME280;15572;48.810;9.148;2023-04-20T03:26:15;97910.00;;;0.55;100.00
28312;BME280;15572;48.810;9.148;2023-04-20T03:31:12;97911.97;;;0.43;100.00
28312;BME280;15572;48.810;9.148;2023-04-20T03:36:08;97907.66;;;0.42;100.00
28312;BME280;15572;48.810;9.148;2023-04-20T03:41:07;97912.13;;;0.61;100.00
28312;BME280;15572;48.810;9.148;2023-04-20T03:46:04;97907.06;;;0.67;100.00
28312;BME280;15572;48.810;9.148;2023-04-20T03:51:00;97902.31;;;0.52;100.00
28312;BME280;15572;48.810;9.148;2023-04-20T03:55:57;97900.59;;;0.22;100.00
28312;BME280;15572;48.810;9.148;2023-04-20T04:01:01;97899.22;;;0.18;100.00
28312;BME280;15572;48.810;9.148;2023-04-20T04:05:58;97893.88;;;0.08;100.00
28312;BME280;15572;48.810;9.148;2023-04-20T04:10:54;97897.25;;;0.20;100.00
28312;BME280;15572;48.810;9.148;2023-04-20T04:15:51;97898.38;;;0.17;100.00
28312;BME280;15572;48.810;9.148;2023-04-20T04:20:49;97895.28;;;0.12;100.00
28312;BME280;15572;48.810;9.148;2023-04-20T04:25:45;97896.69;;;0.16;100.00
28312;BME280;15572;48.810;9.148;2023-04-20T04:30:42;97898.22;;;0.09;100.00
28312;BME280;15572;48.810;9.148;2023-04-20T04:35:39;97897.81;;;0.04;100.00
28312;BME280;15572;48.810;9.148;2023-04-20T04:40:39;97901.75;;;0.10;100.00
28312;BME280;15572;48.810;9.148;2023-04-20T04:45:39;97897.69;;;0.15;100.00
28312;BME280;15572;48.810;9.148;2023-04-20T04:50:36;97897.94;;;0.22;100.00
28312;BME280;15572;48.810;9.148;2023-04-20T04:55:32;97897.56;;;0.26;100.00
28312;BME280;15572;48.810;9.148;2023-04-20T05:00:30;97892.66;;;0.31;100.00
28312;BME280;15572;48.810;9.148;2023-04-20T05:05:27;97894.19;;;0.34;100.00
28312;BME280;15572;48.810;9.148;2023-04-20T05:10:23;97903.44;;;0.49;100.00
28312;BME280;15572;48.810;9.148;2023-04-20T05:15:20;97900.63;;;0.79;100.00
28312;BME280;15572;48.810;9.148;2023-04-20T05:20:18;97910.25;;;1.00;100.00
28312;BME280;15572;48.810;9.148;2023-04-20T05:25:14;97902.78;;;1.03;100.00
28312;BME280;15572;48.810;9.148;2023-04-20T05:30:11;97905.84;;;1.18;100.00
28312;BME280;15572;48.810;9.148;2023-04-20T05:35:08;97908.63;;;1.26;100.00
28312;BME280;15572;48.810;9.148;2023-04-20T05:40:07;97907.75;;;1.35;100.00
28312;BME280;15572;48.810;9.148;2023-04-20T05:45:06;97897.75;;;1.47;100.00
28312;BME280;15572;48.810;9.148;2023-04-20T05:50:03;97910.00;;;1.67;100.00
28312;BME280;15572;48.810;9.148;2023-04-20T05:55:00;97900.16;;;1.95;100.00
28312;BME280;15572;48.810;9.148;2023-04-20T05:59:57;97902.31;;;2.09;100.00
28312;BME280;15572;48.810;9.148;2023-04-20T06:04:54;97893.19;;;2.29;100.00
28312;BME280;15572;48.810;9.148;2023-04-20T06:09:50;97892.53;;;2.45;100.00
28312;BME280;15572;48.810;9.148;2023-04-20T06:14:47;97893.78;;;2.59;100.00
28312;BME280;15572;48.810;9.148;2023-04-20T06:19:45;97896.59;;;2.75;100.00
28312;BME280;15572;48.810;9.148;2023-04-20T06:24:41;97892.09;;;2.93;100.00
28312;BME280;15572;48.810;9.148;2023-04-20T06:29:38;97891.66;;;3.06;100.00
28312;BME280;15572;48.810;9.148;2023-04-20T06:34:34;97893.94;;;3.18;100.00
28312;BME280;15572;48.810;9.148;2023-04-20T06:39:32;97887.13;;;3.32;100.00
28312;BME280;15572;48.810;9.148;2023-04-20T06:44:29;97894.41;;;3.48;100.00
28312;BME280;15572;48.810;9.148;2023-04-20T06:49:26;97877.94;;;3.60;100.00
28312;BME280;15572;48.810;9.148;2023-04-20T06:54:22;97879.84;;;3.76;100.00
28312;BME280;15572;48.810;9.148;2023-04-20T06:59:20;97870.88;;;3.93;100.00
28312;BME280;15572;48.810;9.148;2023-04-20T07:04:16;97870.56;;;4.04;100.00
28312;BME280;15572;48.810;9.148;2023-04-20T07:09:13;97867.59;;;4.15;100.00
28312;BME280;15572;48.810;9.148;2023-04-20T07:14:09;97869.94;;;4.27;100.00
28312;BME280;15572;48.810;9.148;2023-04-20T07:19:07;97866.59;;;4.49;100.00
28312;BME280;15572;48.810;9.148;2023-04-20T07:24:04;97860.75;;;4.61;100.00
28312;BME280;15572;48.810;9.148;2023-04-20T07:29:01;97866.47;;;4.75;100.00
28312;BME280;15572;48.810;9.148;2023-04-20T07:33:57;97867.66;;;4.80;100.00
28312;BME280;15572;48.810;9.148;2023-04-20T07:38:55;97868.81;;;4.94;100.00
28312;BME280;15572;48.810;9.148;2023-04-20T07:43:51;97860.53;;;5.28;100.00
28312;BME280;15572;48.810;9.148;2023-04-20T07:48:48;97855.81;;;5.85;100.00
28312;BME280;15572;48.810;9.148;2023-04-20T07:53:45;97861.28;;;6.30;100.00
28312;BME280;15572;48.810;9.148;2023-04-20T07:58:43;97865.63;;;6.40;98.69
28312;BME280;15572;48.810;9.148;2023-04-20T08:03:39;97862.81;;;6.56;98.21
28312;BME280;15572;48.810;9.148;2023-04-20T08:08:36;97864.59;;;6.86;97.81
28312;BME280;15572;48.810;9.148;2023-04-20T08:13:33;97864.88;;;7.29;95.79
28312;BME280;15572;48.810;9.148;2023-04-20T08:18:32;97862.28;;;7.65;92.35
28312;BME280;15572;48.810;9.148;2023-04-20T08:23:28;97853.69;;;7.69;90.75
28312;BME280;15572;48.810;9.148;2023-04-20T08:28:25;97857.66;;;7.73;89.85
28312;BME280;15572;48.810;9.148;2023-04-20T08:33:21;97861.28;;;7.51;89.61
28312;BME280;15572;48.810;9.148;2023-04-20T08:38:19;97858.00;;;7.26;88.85
28312;BME280;15572;48.810;9.148;2023-04-20T08:43:16;97857.91;;;7.34;90.35
28312;BME280;15572;48.810;9.148;2023-04-20T08:48:13;97852.88;;;7.16;92.23
28312;BME280;15572;48.810;9.148;2023-04-20T08:53:10;97852.59;;;7.11;93.91
28312;BME280;15572;48.810;9.148;2023-04-20T08:58:09;97856.22;;;7.18;93.87
28312;BME280;15572;48.810;9.148;2023-04-20T09:03:06;97856.59;;;7.15;94.91
28312;BME280;15572;48.810;9.148;2023-04-20T09:08:02;97851.28;;;7.07;95.35
28312;BME280;15572;48.810;9.148;2023-04-20T09:12:59;97850.94;;;7.10;96.05
28312;BME280;15572;48.810;9.148;2023-04-20T09:17:57;97850.19;;;7.16;97.24
28312;BME280;15572;48.810;9.148;2023-04-20T09:22:53;97858.19;;;7.25;97.08
28312;BME280;15572;48.810;9.148;2023-04-20T09:27:56;97849.81;;;7.19;96.39
28312;BME280;15572;48.810;9.148;2023-04-20T09:33:01;97844.16;;;7.14;95.86
28312;BME280;15572;48.810;9.148;2023-04-20T09:37:58;97839.13;;;7.11;95.91
28312;BME280;15572;48.810;9.148;2023-04-20T09:42:57;97839.63;;;7.15;95.32
28312;BME280;15572;48.810;9.148;2023-04-20T09:47:54;97837.94;;;7.14;95.20
28312;BME280;15572;48.810;9.148;2023-04-20T09:52:52;97840.47;;;7.30;95.12
28312;BME280;15572;48.810;9.148;2023-04-20T09:57:49;97839.63;;;7.30;94.32
28312;BME280;15572;48.810;9.148;2023-04-20T10:02:47;97832.00;;;7.33;94.05
28312;BME280;15572;48.810;9.148;2023-04-20T10:07:43;97829.59;;;7.38;94.03
28312;BME280;15572;48.810;9.148;2023-04-20T10:12:48;97833.78;;;7.41;94.28
28312;BME280;15572;48.810;9.148;2023-04-20T10:17:45;97830.34;;;7.47;94.25
28312;BME280;15572;48.810;9.148;2023-04-20T10:22:41;97814.91;;;7.55;93.54
28312;BME280;15572;48.810;9.148;2023-04-20T10:27:38;97817.63;;;7.55;92.87
28312;BME280;15572;48.810;9.148;2023-04-20T10:32:36;97812.88;;;7.57;93.26
28312;BME280;15572;48.810;9.148;2023-04-20T10:37:32;97810.81;;;7.59;94.04
28312;BME280;15572;48.810;9.148;2023-04-20T10:42:40;97805.66;;;7.58;95.05
28312;BME280;15572;48.810;9.148;2023-04-20T10:47:38;97794.00;;;7.72;94.92
28312;BME280;15572;48.810;9.148;2023-04-20T10:52:37;97779.13;;;7.76;95.79
28312;BME280;15572;48.810;9.148;2023-04-20T10:57:35;97766.75;;;7.82;97.87
28312;BME280;15572;48.810;9.148;2023-04-20T11:02:31;97757.03;;;8.02;98.70
28312;BME280;15572;48.810;9.148;2023-04-20T11:07:29;97757.75;;;8.11;99.47
28312;BME280;15572;48.810;9.148;2023-04-20T11:12:26;97757.56;;;8.12;100.00
28312;BME280;15572;48.810;9.148;2023-04-20T11:17:34;97753.06;;;7.98;100.00
28312;BME280;15572;48.810;9.148;2023-04-20T11:22:32;97744.00;;;7.70;100.00
28312;BME280;15572;48.810;9.148;2023-04-20T11:27:28;97735.94;;;7.70;100.00
28312;BME280;15572;48.810;9.148;2023-04-20T11:32:26;97732.97;;;7.65;100.00
28312;BME280;15572;48.810;9.148;2023-04-20T11:37:22;97742.91;;;7.64;100.00
28312;BME280;15572;48.810;9.148;2023-04-20T11:42:20;97756.88;;;7.53;100.00
28312;BME280;15572;48.810;9.148;2023-04-20T11:47:17;97754.09;;;7.46;100.00
28312;BME280;15572;48.810;9.148;2023-04-20T11:52:13;97749.63;;;7.39;100.00
28312;BME280;15572;48.810;9.148;2023-04-20T11:57:10;97762.38;;;7.30;100.00
28312;BME280;15572;48.810;9.148;2023-04-20T12:02:08;97758.66;;;7.31;100.00
28312;BME280;15572;48.810;9.148;2023-04-20T12:07:05;97749.28;;;7.42;100.00
28312;BME280;15572;48.810;9.148;2023-04-20T12:12:01;97735.34;;;7.53;100.00
28312;BME280;15572;48.810;9.148;2023-04-20T12:16:58;97730.75;;;7.53;100.00
28312;BME280;15572;48.810;9.148;2023-04-20T12:21:56;97734.50;;;7.52;100.00
28312;BME280;15572;48.810;9.148;2023-04-20T12:26:52;97730.84;;;7.60;100.00
28312;BME280;15572;48.810;9.148;2023-04-20T12:31:49;97729.25;;;7.66;100.00
28312;BME280;15572;48.810;9.148;2023-04-20T12:36:45;97727.84;;;7.70;100.00
28312;BME280;15572;48.810;9.148;2023-04-20T12:41:43;97726.06;;;7.77;100.00
28312;BME280;15572;48.810;9.148;2023-04-20T12:46:39;97720.59;;;7.85;100.00
28312;BME280;15572;48.810;9.148;2023-04-20T12:51:36;97716.47;;;7.89;100.00
28312;BME280;15572;48.810;9.148;2023-04-20T12:56:32;97702.28;;;8.01;100.00
28312;BME280;15572;48.810;9.148;2023-04-20T13:01:30;97687.91;;;8.16;100.00
28312;BME280;15572;48.810;9.148;2023-04-20T13:06:27;97690.22;;;8.40;100.00
28312;BME280;15572;48.810;9.148;2023-04-20T13:11:23;97720.47;;;8.57;100.00
28312;BME280;15572;48.810;9.148;2023-04-20T13:16:20;97728.72;;;8.49;100.00
28312;BME280;15572;48.810;9.148;2023-04-20T13:21:17;97725.22;;;8.33;100.00
28312;BME280;15572;48.810;9.148;2023-04-20T13:26:14;97715.00;;;8.29;100.00
28312;BME280;15572;48.810;9.148;2023-04-20T13:31:10;97732.00;;;8.29;100.00
28312;BME280;15572;48.810;9.148;2023-04-20T13:36:07;97710.00;;;8.26;100.00
28312;BME280;15572;48.810;9.148;2023-04-20T13:41:05;97700.66;;;8.28;99.83
28312;BME280;15572;48.810;9.148;2023-04-20T13:46:02;97700.81;;;8.20;100.00
28312;BME280;15572;48.810;9.148;2023-04-20T13:50:58;97706.72;;;8.09;100.00
28312;BME280;15572;48.810;9.148;2023-04-20T13:55:56;97703.63;;;8.12;100.00
28312;BME280;15572;48.810;9.148;2023-04-20T14:00:53;97682.53;;;8.16;100.00
28312;BME280;15572;48.810;9.148;2023-04-20T14:05:50;97686.75;;;8.25;99.86
28312;BME280;15572;48.810;9.148;2023-04-20T14:10:46;97694.25;;;8.29;99.99
28312;BME280;15572;48.810;9.148;2023-04-20T14:15:43;97679.06;;;8.22;99.06
28312;BME280;15572;48.810;9.148;2023-04-20T14:20:41;97692.66;;;8.14;100.00
28312;BME280;15572;48.810;9.148;2023-04-20T14:25:37;97689.63;;;8.02;100.00
28312;BME280;15572;48.810;9.148;2023-04-20T14:30:34;97694.19;;;8.01;100.00
28312;BME280;15572;48.810;9.148;2023-04-20T14:35:30;97704.16;;;8.01;100.00
28312;BME280;15572;48.810;9.148;2023-04-20T14:40:29;97708.84;;;7.92;100.00
28312;BME280;15572;48.810;9.148;2023-04-20T14:45:25;97702.34;;;7.87;100.00
28312;BME280;15572;48.810;9.148;2023-04-20T14:50:23;97704.16;;;7.80;100.00
28312;BME280;15572;48.810;9.148;2023-04-20T14:55:21;97709.91;;;7.77;100.00
28312;BME280;15572;48.810;9.148;2023-04-20T15:00:21;97712.50;;;7.70;100.00
28312;BME280;15572;48.810;9.148;2023-04-20T15:05:18;97723.50;;;7.69;100.00
28312;BME280;15572;48.810;9.148;2023-04-20T15:10:15;97728.38;;;7.58;100.00
28312;BME280;15572;48.810;9.148;2023-04-20T15:15:11;97720.75;;;7.47;100.00
28312;BME280;15572;48.810;9.148;2023-04-20T15:20:10;97717.41;;;7.45;100.00
28312;BME280;15572;48.810;9.148;2023-04-20T15:25:07;97716.13;;;7.41;100.00
28312;BME280;15572;48.810;9.148;2023-04-20T15:30:05;97721.50;;;7.41;100.00
28312;BME280;15572;48.810;9.148;2023-04-20T15:35:02;97710.75;;;7.41;100.00
28312;BME280;15572;48.810;9.148;2023-04-20T15:40:00;97710.53;;;7.43;100.00
28312;BME280;15572;48.810;9.148;2023-04-20T15:44:57;97710.09;;;7.39;100.00
28312;BME280;15572;48.810;9.148;2023-04-20T15:49:53;97709.41;;;7.37;100.00
28312;BME280;15572;48.810;9.148;2023-04-20T15:54:55;97697.56;;;7.32;100.00
28312;BME280;15572;48.810;9.148;2023-04-20T15:59:53;97696.25;;;7.28;100.00
28312;BME280;15572;48.810;9.148;2023-04-20T16:04:49;97695.25;;;7.29;100.00
28312;BME280;15572;48.810;9.148;2023-04-20T16:09:46;97690.31;;;7.32;100.00
28312;BME280;15572;48.810;9.148;2023-04-20T16:14:42;97699.44;;;7.31;100.00
28312;BME280;15572;48.810;9.148;2023-04-20T16:19:40;97699.97;;;7.27;100.00
28312;BME280;15572;48.810;9.148;2023-04-20T16:24:36;97716.13;;;7.27;100.00
28312;BME280;15572;48.810;9.148;2023-04-20T16:29:33;97737.88;;;7.25;100.00
28312;BME280;15572;48.810;9.148;2023-04-20T16:34:30;97735.25;;;7.17;100.00
28312;BME280;15572;48.810;9.148;2023-04-20T16:39:27;97736.00;;;7.11;100.00
28312;BME280;15572;48.810;9.148;2023-04-20T16:44:24;97729.88;;;7.02;100.00
28312;BME280;15572;48.810;9.148;2023-04-20T16:49:21;97718.28;;;6.87;100.00
28312;BME280;15572;48.810;9.148;2023-04-20T16:54:17;97725.06;;;6.83;100.00
28312;BME280;15572;48.810;9.148;2023-04-20T16:59:15;97741.44;;;6.73;100.00
28312;BME280;15572;48.810;9.148;2023-04-20T17:04:12;97746.91;;;6.65;100.00
28312;BME280;15572;48.810;9.148;2023-04-20T17:09:08;97756.00;;;6.64;100.00
28312;BME280;15572;48.810;9.148;2023-04-20T17:14:05;97756.00;;;6.64;100.00
28312;BME280;15572;48.810;9.148;2023-04-20T17:19:03;97745.63;;;6.76;100.00
28312;BME280;15572;48.810;9.148;2023-04-20T17:24:00;97741.53;;;6.80;100.00
28312;BME280;15572;48.810;9.148;2023-04-20T17:28:57;97745.75;;;6.83;100.00
28312;BME280;15572;48.810;9.148;2023-04-20T17:33:53;97752.41;;;6.87;100.00
28312;BME280;15572;48.810;9.148;2023-04-20T17:38:51;97758.09;;;6.92;100.00
28312;BME280;15572;48.810;9.148;2023-04-20T17:43:49;97767.84;;;6.93;100.00
28312;BME280;15572;48.810;9.148;2023-04-20T17:48:45;97760.31;;;6.88;100.00
28312;BME280;15572;48.810;9.148;2023-04-20T17:53:44;97755.94;;;6.87;100.00
28312;BME280;15572;48.810;9.148;2023-04-20T17:58:42;97746.03;;;6.88;100.00
28312;BME280;15572;48.810;9.148;2023-04-20T18:03:38;97741.81;;;6.85;100.00
28312;BME280;15572;48.810;9.148;2023-04-20T18:08:35;97739.81;;;6.87;100.00
28312;BME280;15572;48.810;9.148;2023-04-20T18:13:31;97729.88;;;6.88;100.00
28312;BME280;15572;48.810;9.148;2023-04-20T18:18:29;97739.81;;;6.87;100.00
28312;BME280;15572;48.810;9.148;2023-04-20T18:23:26;97764.19;;;6.86;100.00
28312;BME280;15572;48.810;9.148;2023-04-20T18:28:24;97767.34;;;6.89;100.00
28312;BME280;15572;48.810;9.148;2023-04-20T18:33:20;97752.25;;;6.88;100.00
28312;BME280;15572;48.810;9.148;2023-04-20T18:38:18;97749.91;;;6.85;100.00
28312;BME280;15572;48.810;9.148;2023-04-20T18:43:14;97765.22;;;6.85;100.00
28312;BME280;15572;48.810;9.148;2023-04-20T18:48:11;97785.09;;;6.84;100.00
28312;BME280;15572;48.810;9.148;2023-04-20T18:53:07;97784.31;;;6.90;100.00
28312;BME280;15572;48.810;9.148;2023-04-20T18:58:05;97787.41;;;6.87;100.00
28312;BME280;15572;48.810;9.148;2023-04-20T19:03:02;97791.94;;;6.86;100.00
28312;BME280;15572;48.810;9.148;2023-04-20T19:07:59;97803.53;;;6.87;100.00
28312;BME280;15572;48.810;9.148;2023-04-20T19:12:56;97796.19;;;6.81;100.00
28312;BME280;15572;48.810;9.148;2023-04-20T19:17:54;97797.75;;;6.75;100.00
28312;BME280;15572;48.810;9.148;2023-04-20T19:22:51;97813.84;;;6.83;100.00
28312;BME280;15572;48.810;9.148;2023-04-20T19:27:48;97797.47;;;6.70;100.00
28312;BME280;15572;48.810;9.148;2023-04-20T19:32:44;97826.78;;;6.65;100.00
28312;BME280;15572;48.810;9.148;2023-04-20T19:37:42;97821.16;;;6.52;100.00
28312;BME280;15572;48.810;9.148;2023-04-20T19:42:39;97821.97;;;6.52;100.00
28312;BME280;15572;48.810;9.148;2023-04-20T19:47:36;97820.50;;;6.50;100.00
28312;BME280;15572;48.810;9.148;2023-04-20T19:52:33;97814.13;;;6.51;100.00
28312;BME280;15572;48.810;9.148;2023-04-20T19:57:31;97819.59;;;6.57;100.00
28312;BME280;15572;48.810;9.148;2023-04-20T20:02:28;97811.19;;;6.60;100.00
28312;BME280;15572;48.810;9.148;2023-04-20T20:07:24;97806.63;;;6.61;100.00
28312;BME280;15572;48.810;9.148;2023-04-20T20:12:22;97823.25;;;6.64;100.00
28312;BME280;15572;48.810;9.148;2023-04-20T20:17:20;97823.91;;;6.66;100.00
28312;BME280;15572;48.810;9.148;2023-04-20T20:22:16;97833.09;;;6.72;100.00
28312;BME280;15572;48.810;9.148;2023-04-20T20:27:13;97818.28;;;6.76;100.00
28312;BME280;15572;48.810;9.148;2023-04-20T20:32:10;97810.19;;;6.76;100.00
28312;BME280;15572;48.810;9.148;2023-04-20T20:37:08;97805.38;;;6.71;100.00
28312;BME280;15572;48.810;9.148;2023-04-20T20:42:05;97812.44;;;6.72;100.00
28312;BME280;15572;48.810;9.148;2023-04-20T20:47:03;97808.97;;;6.78;100.00
28312;BME280;15572;48.810;9.148;2023-04-20T20:52:00;97809.19;;;6.77;100.00
28312;BME280;15572;48.810;9.148;2023-04-20T20:56:58;97803.81;;;6.77;100.00
28312;BME280;15572;48.810;9.148;2023-04-20T21:01:55;97797.94;;;6.73;100.00
28312;BME280;15572;48.810;9.148;2023-04-20T21:06:52;97796.63;;;6.69;100.00
28312;BME280;15572;48.810;9.148;2023-04-20T21:11:48;97793.47;;;6.66;100.00
28312;BME280;15572;48.810;9.148;2023-04-20T21:16:47;97791.81;;;6.65;100.00
28312;BME280;15572;48.810;9.148;2023-04-20T21:21:43;97784.63;;;6.57;100.00
28312;BME280;15572;48.810;9.148;2023-04-20T21:26:40;97793.72;;;6.56;100.00
28312;BME280;15572;48.810;9.148;2023-04-20T21:31:37;97795.75;;;6.54;100.00
28312;BME280;15572;48.810;9.148;2023-04-20T21:36:34;97789.53;;;6.54;100.00
28312;BME280;15572;48.810;9.148;2023-04-20T21:41:31;97790.09;;;6.49;100.00
28312;BME280;15572;48.810;9.148;2023-04-20T21:46:27;97785.59;;;6.42;100.00
28312;BME280;15572;48.810;9.148;2023-04-20T21:51:24;97785.66;;;6.33;100.00
28312;BME280;15572;48.810;9.148;2023-04-20T21:56:23;97786.38;;;6.27;100.00
28312;BME280;15572;48.810;9.148;2023-04-20T22:01:19;97782.44;;;6.15;100.00
28312;BME280;15572;48.810;9.148;2023-04-20T22:06:16;97785.06;;;6.01;100.00
28312;BME280;15572;48.810;9.148;2023-04-20T22:11:12;97788.47;;;5.86;100.00
28312;BME280;15572;48.810;9.148;2023-04-20T22:16:10;97790.19;;;5.79;100.00
28312;BME280;15572;48.810;9.148;2023-04-20T22:21:06;97789.22;;;5.72;100.00
28312;BME280;15572;48.810;9.148;2023-04-20T22:26:03;97793.97;;;5.62;100.00
28312;BME280;15572;48.810;9.148;2023-04-20T22:31:00;97802.72;;;5.56;100.00
28312;BME280;15572;48.810;9.148;2023-04-20T22:35:58;97797.38;;;5.48;100.00
28312;BME280;15572;48.810;9.148;2023-04-20T22:40:54;97801.44;;;5.36;100.00
28312;BME280;15572;48.810;9.148;2023-04-20T22:45:51;97796.28;;;5.26;100.00
28312;BME280;15572;48.810;9.148;2023-04-20T22:50:48;97811.28;;;5.13;100.00
28312;BME280;15572;48.810;9.148;2023-04-20T22:55:46;97817.00;;;5.01;100.00
28312;BME280;15572;48.810;9.148;2023-04-20T23:00:43;97821.19;;;4.88;100.00
28312;BME280;15572;48.810;9.148;2023-04-20T23:05:39;97820.38;;;4.79;100.00
28312;BME280;15572;48.810;9.148;2023-04-20T23:10:38;97820.03;;;4.74;100.00
28312;BME280;15572;48.810;9.148;2023-04-20T23:15:36;97822.22;;;4.71;100.00
28312;BME280;15572;48.810;9.148;2023-04-20T23:20:32;97807.97;;;4.62;100.00
28312;BME280;15572;48.810;9.148;2023-04-20T23:25:31;97809.66;;;4.47;100.00
28312;BME280;15572;48.810;9.148;2023-04-20T23:30:27;97810.66;;;4.30;100.00
28312;BME280;15572;48.810;9.148;2023-04-20T23:35:25;97819.19;;;4.25;100.00
28312;BME280;15572;48.810;9.148;2023-04-20T23:40:21;97807.97;;;4.21;100.00
28312;BME280;15572;48.810;9.148;2023-04-20T23:45:18;97806.63;;;4.09;100.00
28312;BME280;15572;48.810;9.148;2023-04-20T23:50:14;97800.06;;;4.04;100.00
28312;BME280;15572;48.810;9.148;2023-04-20T23:55:12;97799.38;;;4.02;100.00
